createdAt,value
2022-08-12T00:00:00.070Z,50.70
2022-08-12T00:02:47.316Z,50.60
2022-08-12T00:05:34.649Z,50.70
2022-08-12T00:08:28.849Z,50.60
2022-08-12T00:11:25.362Z,50.60
2022-08-12T00:14:10.753Z,50.60
2022-08-12T00:16:57.013Z,50.60
2022-08-12T00:19:44.097Z,50.50
2022-08-12T00:22:29.995Z,50.50
2022-08-12T00:25:19.475Z,50.50
2022-08-12T00:28:06.408Z,50.50
2022-08-12T00:30:53.906Z,50.50
2022-08-12T00:33:52.376Z,50.50
2022-08-12T00:36:45.085Z,50.40
2022-08-12T00:39:31.229Z,50.40
2022-08-12T00:42:11.182Z,50.40
2022-08-12T00:44:41.154Z,50.40
2022-08-12T00:47:24.431Z,50.30
2022-08-12T00:49:55.446Z,50.30
2022-08-12T00:52:26.465Z,50.30
2022-08-12T00:54:57.166Z,50.30
2022-08-12T00:57:28.785Z,50.30
2022-08-12T00:59:59.311Z,50.20
2022-08-12T01:02:31.004Z,50.30
2022-08-12T01:05:18.950Z,50.20
2022-08-12T01:08:13.246Z,50.20
2022-08-12T01:11:01.036Z,50.20
2022-08-12T01:13:31.044Z,50.20
2022-08-12T01:16:01.462Z,50.20
2022-08-12T01:18:32.567Z,50.30
2022-08-12T01:21:12.949Z,50.20
2022-08-12T01:24:29.688Z,50.20
2022-08-12T01:26:54.718Z,50.20
2022-08-12T01:29:28.493Z,50.30
2022-08-12T01:32:05.449Z,50.20
2022-08-12T01:34:38.361Z,50.20
2022-08-12T01:37:09.612Z,50.10
2022-08-12T01:40:31.483Z,50.20
2022-08-12T01:42:35.020Z,50.20
2022-08-12T01:45:04.009Z,50.20
2022-08-12T01:47:43.115Z,50.20
2022-08-12T01:50:21.985Z,50.10
2022-08-12T01:53:06.447Z,50.10
2022-08-12T01:55:38.311Z,50.10
2022-08-12T01:58:24.156Z,50.10
2022-08-12T02:00:59.202Z,50.10
2022-08-12T02:04:05.869Z,50.20
2022-08-12T02:07:00.974Z,50.20
2022-08-12T02:10:04.504Z,50.20
2022-08-12T02:12:48.460Z,50.20
2022-08-12T02:15:28.787Z,50.20
2022-08-12T02:18:13.707Z,50.20
2022-08-12T02:20:52.373Z,50.20
2022-08-12T02:23:27.034Z,50.20
2022-08-12T02:25:59.396Z,50.20
2022-08-12T02:28:28.909Z,50.00
2022-08-12T02:31:09.899Z,50.10
2022-08-12T02:33:38.867Z,50.20
2022-08-12T02:36:10.148Z,50.20
2022-08-12T02:38:38.809Z,50.10
2022-08-12T02:41:12.927Z,50.20
2022-08-12T02:43:46.992Z,50.10
2022-08-12T02:46:22.481Z,50.10
2022-08-12T02:48:52.612Z,50.20
2022-08-12T02:51:24.673Z,50.10
2022-08-12T02:54:04.392Z,50.10
2022-08-12T02:56:34.607Z,50.10
2022-08-12T02:59:03.013Z,50.10
2022-08-12T03:01:35.650Z,50.10
2022-08-12T03:04:20.137Z,50.10
2022-08-12T03:06:54.033Z,50.10
2022-08-12T03:09:24.901Z,50.00
2022-08-12T03:12:04.797Z,50.00
2022-08-12T03:14:36.936Z,50.00
2022-08-12T03:17:17.090Z,50.00
2022-08-12T03:20:09.436Z,50.10
2022-08-12T03:22:40.751Z,50.00
2022-08-12T03:25:17.431Z,50.00
2022-08-12T03:27:51.594Z,50.00
2022-08-12T03:30:20.713Z,50.00
2022-08-12T03:32:52.143Z,50.00
2022-08-12T03:35:41.035Z,50.00
2022-08-12T03:38:16.081Z,50.00
2022-08-12T03:41:11.548Z,49.90
2022-08-12T03:44:06.649Z,50.00
2022-08-12T03:46:58.135Z,50.00
2022-08-12T03:49:45.655Z,50.00
2022-08-12T03:52:31.046Z,50.00
2022-08-12T03:55:16.978Z,49.90
2022-08-12T03:58:02.371Z,50.00
2022-08-12T04:00:31.744Z,50.00
2022-08-12T04:03:00.639Z,50.00
2022-08-12T04:05:55.973Z,49.90
2022-08-12T04:08:26.014Z,49.90
2022-08-12T04:11:12.879Z,49.90
2022-08-12T04:13:41.390Z,49.90
2022-08-12T04:16:13.480Z,49.90
2022-08-12T04:18:42.760Z,49.90
2022-08-12T04:21:12.535Z,49.80
2022-08-12T04:23:48.240Z,49.90
2022-08-12T04:26:17.585Z,49.90
2022-08-12T04:28:45.992Z,49.80
2022-08-12T04:31:14.378Z,49.80
2022-08-12T04:33:44.285Z,49.80
2022-08-12T04:36:14.257Z,49.80
2022-08-12T04:38:43.970Z,49.80
2022-08-12T04:41:12.268Z,49.80
2022-08-12T04:44:01.159Z,49.80
2022-08-12T04:46:34.952Z,49.80
2022-08-12T04:49:04.724Z,49.80
2022-08-12T04:51:34.572Z,49.90
2022-08-12T04:54:04.610Z,49.80
2022-08-12T04:56:35.420Z,49.80
2022-08-12T04:59:05.400Z,49.80
2022-08-12T05:01:33.570Z,49.60
2022-08-12T05:04:02.893Z,49.40
2022-08-12T05:06:31.130Z,49.50
2022-08-12T05:09:01.374Z,49.50
2022-08-12T05:11:30.017Z,49.50
2022-08-12T05:14:01.500Z,49.50
2022-08-12T05:16:34.329Z,49.60
2022-08-12T05:19:04.958Z,49.60
2022-08-12T05:21:33.860Z,49.60
2022-08-12T05:24:03.441Z,49.60
2022-08-12T05:26:31.557Z,49.60
2022-08-12T05:28:59.740Z,49.70
2022-08-12T05:31:47.249Z,49.70
2022-08-12T05:34:16.750Z,49.70
2022-08-12T05:36:44.994Z,49.50
2022-08-12T05:39:14.768Z,49.00
2022-08-12T05:41:44.455Z,49.20
2022-08-12T05:44:15.701Z,48.70
2022-08-12T05:46:44.258Z,49.10
2022-08-12T05:49:12.475Z,49.80
2022-08-12T05:51:41.833Z,50.10
2022-08-12T05:54:10.855Z,50.20
2022-08-12T05:56:41.507Z,51.10
2022-08-12T05:59:12.000Z,50.80
2022-08-12T06:02:09.790Z,51.10
2022-08-12T06:04:30.064Z,51.30
2022-08-12T06:06:58.478Z,52.30
2022-08-12T06:09:28.636Z,52.50
2022-08-12T06:12:04.555Z,52.50
2022-08-12T06:14:36.933Z,52.30
2022-08-12T06:17:08.442Z,52.00
2022-08-12T06:20:26.112Z,51.90
2022-08-12T06:22:25.941Z,51.70
2022-08-12T06:24:54.435Z,51.60
2022-08-12T06:27:24.003Z,51.70
2022-08-12T06:30:08.232Z,51.50
2022-08-12T06:32:51.869Z,51.40
2022-08-12T06:35:48.300Z,51.60
2022-08-12T06:38:18.756Z,51.60
2022-08-12T06:41:08.314Z,51.50
2022-08-12T06:44:07.084Z,51.50
2022-08-12T06:46:28.206Z,51.40
2022-08-12T06:48:59.073Z,51.30
2022-08-12T06:51:28.924Z,51.10
2022-08-12T06:53:57.915Z,51.10
2022-08-12T06:56:40.193Z,51.10
2022-08-12T06:59:15.913Z,51.00
2022-08-12T07:01:50.763Z,51.10
2022-08-12T07:04:37.286Z,51.00
2022-08-12T07:07:08.466Z,51.00
2022-08-12T07:10:05.528Z,51.10
2022-08-12T07:12:28.171Z,51.30
2022-08-12T07:14:58.766Z,51.40
2022-08-12T07:17:35.935Z,51.70
2022-08-12T07:20:05.850Z,52.00
2022-08-12T07:22:34.407Z,52.90
2022-08-12T07:25:20.032Z,52.50
2022-08-12T07:27:50.362Z,52.70
2022-08-12T07:30:19.877Z,53.10
2022-08-12T07:32:49.725Z,53.40
2022-08-12T07:35:19.565Z,53.20
2022-08-12T07:37:50.426Z,53.40
2022-08-12T07:40:19.070Z,53.30
2022-08-12T07:42:47.515Z,53.30
2022-08-12T07:45:15.923Z,53.20
2022-08-12T07:47:45.467Z,52.80
2022-08-12T07:50:18.870Z,52.60
2022-08-12T07:52:49.791Z,52.60
2022-08-12T07:55:19.593Z,52.80
2022-08-12T07:57:55.878Z,52.70
2022-08-12T08:00:24.845Z,52.30
2022-08-12T08:02:55.313Z,52.70
2022-08-12T08:05:26.343Z,52.30
2022-08-12T08:07:55.927Z,52.30
2022-08-12T08:10:24.342Z,52.50
2022-08-12T08:12:54.119Z,52.30
2022-08-12T08:15:38.594Z,51.70
2022-08-12T08:18:26.217Z,52.00
2022-08-12T08:20:57.344Z,52.00
2022-08-12T08:23:56.488Z,52.00
2022-08-12T08:26:27.219Z,51.90
2022-08-12T08:28:55.648Z,51.90
2022-08-12T08:31:23.890Z,51.90
2022-08-12T08:34:08.962Z,51.80
2022-08-12T08:36:43.951Z,51.90
2022-08-12T08:39:16.928Z,52.20
2022-08-12T08:42:14.227Z,52.20
2022-08-12T08:44:49.814Z,52.00
2022-08-12T08:47:26.911Z,52.10
2022-08-12T08:50:01.017Z,52.20
2022-08-12T08:52:39.772Z,52.50
2022-08-12T08:55:10.522Z,52.20
2022-08-12T08:57:43.239Z,52.00
2022-08-12T09:00:15.743Z,51.60
2022-08-12T09:02:49.386Z,52.40
2022-08-12T09:05:43.101Z,51.90
2022-08-12T09:08:26.689Z,52.00
2022-08-12T09:12:07.414Z,52.10
2022-08-12T09:14:11.123Z,52.70
2022-08-12T09:16:42.717Z,52.30
2022-08-12T09:19:27.292Z,52.30
2022-08-12T09:22:00.331Z,51.40
2022-08-12T09:24:28.654Z,51.90
2022-08-12T09:26:59.336Z,51.60
2022-08-12T09:30:10.659Z,50.90
2022-08-12T09:32:56.973Z,51.00
2022-08-12T09:35:21.981Z,50.90
2022-08-12T09:37:59.396Z,51.70
2022-08-12T09:42:07.437Z,51.40
2022-08-12T09:44:00.719Z,51.90
2022-08-12T09:46:30.332Z,51.30
2022-08-12T09:49:13.500Z,51.40
2022-08-12T09:51:47.703Z,52.10
2022-08-12T09:54:32.723Z,52.40
2022-08-12T09:58:45.370Z,51.70
2022-08-12T10:00:12.896Z,51.20
2022-08-12T10:03:01.205Z,51.60
2022-08-12T10:06:11.912Z,51.60
2022-08-12T10:08:22.853Z,51.80
2022-08-12T10:11:20.199Z,51.00
2022-08-12T10:13:51.133Z,52.00
2022-08-12T10:16:24.611Z,52.00
2022-08-12T10:18:57.224Z,50.80
2022-08-12T10:21:35.427Z,51.00
2022-08-12T10:24:06.397Z,52.10
2022-08-12T10:26:54.944Z,51.90
2022-08-12T10:30:03.068Z,51.30
2022-08-12T10:32:43.237Z,51.30
2022-08-12T10:35:15.862Z,51.90
2022-08-12T10:38:38.808Z,52.10
2022-08-12T10:40:54.479Z,52.20
2022-08-12T10:43:55.466Z,51.60
2022-08-12T10:46:31.281Z,49.40
2022-08-12T10:49:06.903Z,52.20
2022-08-12T10:52:04.854Z,51.90
2022-08-12T10:54:41.321Z,52.30
2022-08-12T10:57:18.548Z,52.10
2022-08-12T11:00:30.205Z,51.60
2022-08-12T11:04:35.952Z,51.10
2022-08-12T11:07:06.997Z,51.20
2022-08-12T11:08:43.669Z,51.10
2022-08-12T11:11:17.804Z,52.00
2022-08-12T11:14:06.076Z,51.80
2022-08-12T11:17:33.653Z,52.10
2022-08-12T11:19:33.178Z,51.90
2022-08-12T11:22:03.214Z,49.00
2022-08-12T11:24:33.732Z,47.60
2022-08-12T11:27:07.833Z,49.30
2022-08-12T11:30:01.667Z,48.80
2022-08-12T11:32:28.744Z,49.20
2022-08-12T11:34:59.136Z,49.40
2022-08-12T11:37:27.689Z,50.00
2022-08-12T11:42:37.363Z,53.60
2022-08-12T11:45:16.972Z,52.90
2022-08-12T11:47:49.208Z,52.60
2022-08-12T11:50:19.646Z,53.10
2022-08-12T11:52:55.931Z,53.90
2022-08-12T11:55:27.551Z,53.80
2022-08-12T11:58:17.212Z,54.40
2022-08-12T12:03:44.024Z,54.20
2022-08-12T12:06:17.134Z,54.10
2022-08-12T12:08:50.869Z,54.60
2022-08-12T12:11:21.609Z,54.50
2022-08-12T12:14:08.323Z,54.00
2022-08-12T12:16:40.052Z,54.20
2022-08-12T12:19:11.703Z,54.00
2022-08-12T12:21:47.920Z,54.30
2022-08-12T12:24:21.539Z,52.50
2022-08-12T12:27:00.238Z,54.10
2022-08-12T12:30:18.970Z,53.10
2022-08-12T12:32:18.985Z,53.50
2022-08-12T12:35:13.499Z,52.50
2022-08-12T12:38:05.517Z,52.30
2022-08-12T12:40:40.724Z,51.80
2022-08-12T12:43:09.712Z,53.00
2022-08-12T12:45:44.582Z,53.10
2022-08-12T12:48:17.478Z,52.20
2022-08-12T12:50:51.708Z,52.70
2022-08-12T12:54:06.646Z,52.80
2022-08-12T12:56:16.501Z,53.00
2022-08-12T12:58:45.071Z,53.00
2022-08-12T13:01:26.801Z,52.90
2022-08-12T13:04:02.273Z,53.00
2022-08-12T13:06:34.324Z,52.40
2022-08-12T13:09:04.568Z,52.10
2022-08-12T13:11:41.306Z,51.40
2022-08-12T13:14:28.925Z,49.80
2022-08-12T13:17:02.936Z,51.50
2022-08-12T13:19:43.496Z,50.20
2022-08-12T13:22:21.426Z,51.50
2022-08-12T13:24:56.204Z,51.60
2022-08-12T13:27:35.348Z,51.60
2022-08-12T13:30:11.147Z,51.50
2022-08-12T13:32:42.095Z,51.60
2022-08-12T13:35:20.135Z,51.80
2022-08-12T13:38:02.792Z,51.80
2022-08-12T13:40:32.979Z,51.90
2022-08-12T13:43:02.344Z,51.90
2022-08-12T13:45:35.149Z,52.00
2022-08-12T13:48:06.662Z,52.00
2022-08-12T13:50:37.472Z,52.40
2022-08-12T13:53:23.908Z,52.60
2022-08-12T13:56:01.616Z,52.70
2022-08-12T13:58:32.865Z,52.80
2022-08-12T14:01:09.003Z,52.90
2022-08-12T14:03:49.954Z,52.80
2022-08-12T14:06:20.400Z,52.80
2022-08-12T14:08:50.574Z,53.00
2022-08-12T14:11:25.313Z,53.00
2022-08-12T14:14:06.466Z,53.00
2022-08-12T14:16:48.559Z,52.90
2022-08-12T14:19:24.384Z,52.80
2022-08-12T14:22:01.219Z,52.90
2022-08-12T14:24:40.677Z,53.00
2022-08-12T14:27:11.319Z,52.80
2022-08-12T14:30:06.136Z,52.80
2022-08-12T14:32:34.463Z,52.80
2022-08-12T14:35:03.944Z,52.70
2022-08-12T14:37:55.006Z,52.60
2022-08-12T14:40:27.593Z,52.60
2022-08-12T14:42:57.047Z,52.60
2022-08-12T14:45:44.608Z,52.60
2022-08-12T14:48:15.408Z,52.60
2022-08-12T14:52:16.129Z,52.60
2022-08-12T14:54:55.876Z,52.50
2022-08-12T14:59:57.546Z,52.50
2022-08-12T15:02:23.194Z,52.50
2022-08-12T15:04:58.947Z,52.50
2022-08-12T15:07:50.090Z,52.50
2022-08-12T15:10:32.015Z,52.40
2022-08-12T15:13:07.409Z,52.40
2022-08-12T15:15:43.755Z,52.40
2022-08-12T15:18:15.088Z,52.30
2022-08-12T15:20:43.245Z,52.30
2022-08-12T15:23:17.359Z,52.30
2022-08-12T15:25:50.429Z,52.20
2022-08-12T15:28:35.297Z,52.20
2022-08-12T15:31:27.697Z,52.20
2022-08-12T15:33:57.228Z,52.30
2022-08-12T15:36:53.515Z,52.20
2022-08-12T15:39:17.067Z,52.20
2022-08-12T15:41:49.941Z,52.20
2022-08-12T15:44:38.805Z,52.20
2022-08-12T15:47:09.628Z,52.20
2022-08-12T15:49:55.072Z,52.10
2022-08-12T15:52:28.548Z,52.10
2022-08-12T15:55:06.477Z,52.10
2022-08-12T15:57:41.520Z,52.10
2022-08-12T16:00:28.987Z,52.10
2022-08-12T16:03:02.087Z,52.10
2022-08-12T16:06:12.665Z,52.10
2022-08-12T16:08:27.556Z,52.10
2022-08-12T16:10:56.844Z,52.10
2022-08-12T16:13:34.371Z,52.00
2022-08-12T16:16:23.796Z,52.00
2022-08-12T16:18:58.639Z,52.00
2022-08-12T16:21:50.526Z,52.00
2022-08-12T16:24:18.690Z,52.00
2022-08-12T16:26:50.991Z,52.00
2022-08-12T16:29:23.709Z,51.90
2022-08-12T16:31:53.872Z,51.90
2022-08-12T16:34:25.494Z,51.90
2022-08-12T16:37:09.921Z,51.90
2022-08-12T16:39:59.913Z,51.90
2022-08-12T16:42:28.263Z,51.80
2022-08-12T16:44:59.429Z,51.80
2022-08-12T16:47:57.292Z,51.80
2022-08-12T16:50:21.772Z,51.80
2022-08-12T16:53:03.442Z,51.70
2022-08-12T16:55:41.760Z,51.80
2022-08-12T16:58:28.281Z,51.80
2022-08-12T17:01:01.710Z,51.80
2022-08-12T17:03:38.086Z,51.80
2022-08-12T17:06:22.421Z,51.90
2022-08-12T17:09:02.798Z,51.90
2022-08-12T17:11:32.033Z,52.00
2022-08-12T17:14:01.644Z,52.00
2022-08-12T17:16:30.521Z,52.00
2022-08-12T17:19:03.304Z,52.00
2022-08-12T17:21:41.046Z,52.00
2022-08-12T17:24:30.161Z,52.00
2022-08-12T17:27:00.912Z,52.00
2022-08-12T17:30:03.107Z,52.10
2022-08-12T17:32:30.567Z,52.10
2022-08-12T17:35:18.494Z,52.10
2022-08-12T17:37:48.692Z,52.10
2022-08-12T17:40:35.939Z,52.20
2022-08-12T17:43:56.047Z,52.20
2022-08-12T17:45:58.697Z,52.20
2022-08-12T17:48:34.349Z,52.20
2022-08-12T17:51:17.312Z,52.30
2022-08-12T17:54:11.615Z,52.20
2022-08-12T17:56:37.921Z,52.20
2022-08-12T17:59:09.549Z,52.30
2022-08-12T18:01:44.272Z,52.30
2022-08-12T18:04:22.967Z,52.40
2022-08-12T18:07:08.422Z,52.40
2022-08-12T18:09:37.431Z,52.40
2022-08-12T18:12:24.617Z,52.40
2022-08-12T18:15:00.407Z,52.40
2022-08-12T18:17:29.356Z,52.50
2022-08-12T18:20:05.311Z,52.50
2022-08-12T18:22:38.518Z,52.50
2022-08-12T18:26:09.848Z,52.50
2022-08-12T18:28:16.095Z,52.50
2022-08-12T18:30:53.460Z,52.50
2022-08-12T18:33:25.519Z,52.60
2022-08-12T18:35:57.000Z,52.60
2022-08-12T18:38:28.337Z,52.60
2022-08-12T18:41:21.577Z,52.60
2022-08-12T18:44:02.428Z,52.60
2022-08-12T18:46:48.889Z,52.60
2022-08-12T18:49:29.740Z,52.60
2022-08-12T18:52:04.346Z,52.60
2022-08-12T18:54:49.733Z,52.50
2022-08-12T18:58:06.150Z,52.50
2022-08-12T19:00:20.958Z,52.50
2022-08-12T19:02:51.840Z,52.60
2022-08-12T19:05:20.125Z,52.50
2022-08-12T19:08:01.151Z,52.50
2022-08-12T19:10:32.797Z,52.50
2022-08-12T19:13:24.161Z,52.50
2022-08-12T19:15:57.755Z,52.50
2022-08-12T19:18:30.231Z,52.40
2022-08-12T19:21:12.150Z,52.30
2022-08-12T19:24:05.398Z,52.00
2022-08-12T19:26:34.978Z,51.70
2022-08-12T19:29:04.986Z,51.80
2022-08-12T19:31:57.582Z,51.50
2022-08-12T19:37:26.753Z,51.50
2022-08-12T19:40:10.221Z,51.30
2022-08-12T19:42:57.419Z,51.20
2022-08-12T19:45:42.270Z,51.20
2022-08-12T19:48:17.904Z,51.20
2022-08-12T19:50:50.588Z,51.10
2022-08-12T19:53:22.805Z,51.20
2022-08-12T19:55:55.773Z,51.20
2022-08-12T19:58:26.785Z,51.20
2022-08-12T20:00:56.184Z,51.30
2022-08-12T20:03:39.492Z,51.20
2022-08-12T20:06:18.305Z,51.20
2022-08-12T20:08:56.590Z,51.30
2022-08-12T20:12:13.026Z,51.30
2022-08-12T20:14:19.290Z,51.30
2022-08-12T20:16:54.265Z,51.30
2022-08-12T20:20:15.166Z,51.30
2022-08-12T20:22:24.031Z,51.20
2022-08-12T20:25:00.969Z,51.30
2022-08-12T20:28:03.659Z,51.30
2022-08-12T20:30:37.620Z,51.20
2022-08-12T20:33:19.095Z,51.30
2022-08-12T20:36:14.171Z,51.30
2022-08-12T20:38:45.869Z,51.30
2022-08-12T20:41:17.561Z,51.20
2022-08-12T20:43:50.366Z,51.30
2022-08-12T20:46:21.241Z,51.30
2022-08-12T20:48:54.796Z,51.30
2022-08-12T20:51:27.717Z,51.30
2022-08-12T20:53:59.255Z,51.30
2022-08-12T20:56:36.577Z,51.40
2022-08-12T20:59:08.317Z,51.40
2022-08-12T21:01:46.781Z,51.50
2022-08-12T21:04:35.959Z,51.40
2022-08-12T21:07:09.423Z,51.40
2022-08-12T21:09:41.999Z,51.60
2022-08-12T21:12:27.524Z,51.60
2022-08-12T21:15:24.396Z,51.60
2022-08-12T21:18:11.069Z,51.60
2022-08-12T21:20:52.484Z,51.70
2022-08-12T21:23:22.535Z,51.80
2022-08-12T21:25:52.454Z,51.80
2022-08-12T21:28:27.613Z,51.80
2022-08-12T21:32:34.817Z,51.90
2022-08-12T21:34:07.605Z,51.90
2022-08-12T21:36:43.141Z,52.00
2022-08-12T21:39:18.987Z,52.10
2022-08-12T21:41:51.502Z,52.10
2022-08-12T21:44:24.352Z,52.10
2022-08-12T21:47:12.146Z,52.00
2022-08-12T21:49:53.796Z,51.90
2022-08-12T21:52:28.231Z,51.90
2022-08-12T21:55:03.614Z,51.90
2022-08-12T21:57:36.423Z,52.00
2022-08-12T22:00:19.993Z,51.90
2022-08-12T22:03:05.518Z,51.90
2022-08-12T22:05:54.912Z,51.90
2022-08-12T22:08:25.429Z,52.00
2022-08-12T22:10:56.378Z,52.00
2022-08-12T22:14:02.952Z,51.90
2022-08-12T22:16:19.127Z,51.90
2022-08-12T22:18:50.524Z,52.00
2022-08-12T22:21:22.128Z,52.00
2022-08-12T22:23:51.802Z,52.00
2022-08-12T22:26:37.593Z,51.90
2022-08-12T22:29:23.811Z,51.90
2022-08-12T22:31:55.698Z,52.00
2022-08-12T22:34:29.882Z,52.00
2022-08-12T22:37:05.668Z,52.00
2022-08-12T22:39:44.687Z,52.00
2022-08-12T22:42:41.584Z,52.00
2022-08-12T22:45:28.267Z,52.00
2022-08-12T22:47:58.723Z,52.00
2022-08-12T22:50:29.609Z,52.00
2022-08-12T22:53:15.311Z,52.00
2022-08-12T22:56:05.593Z,52.00
2022-08-12T22:59:02.820Z,52.00
2022-08-12T23:02:01.212Z,52.00
2022-08-12T23:04:27.706Z,52.00
2022-08-12T23:07:05.373Z,52.00
2022-08-12T23:09:48.008Z,52.00
2022-08-12T23:12:46.903Z,52.00
2022-08-12T23:15:14.612Z,52.00
2022-08-12T23:17:43.450Z,52.00
2022-08-12T23:20:15.097Z,52.00
2022-08-12T23:22:56.082Z,52.00
2022-08-12T23:25:54.135Z,52.00
2022-08-12T23:28:46.359Z,52.00
2022-08-12T23:32:01.701Z,52.00
2022-08-12T23:34:13.078Z,52.00
2022-08-12T23:36:44.005Z,52.00
2022-08-12T23:40:14.052Z,52.00
2022-08-12T23:42:17.906Z,52.00
2022-08-12T23:44:48.593Z,52.00
2022-08-12T23:47:21.286Z,52.00
2022-08-12T23:49:57.395Z,52.00
2022-08-12T23:52:34.721Z,52.00
2022-08-12T23:55:24.941Z,52.00
2022-08-12T23:58:21.165Z,52.00
